Impacts TAF Board INFO
FOR SITUATIONAL AWARENESS. NOT TO BE USED FOR FLIGHT PLANNING PURPOSES.
IDs:

KMIA - Miami Intl, FL, US

Issued at 0254 UTC 21 Jan 2018
Updated at 0427 UTC 21 Jan 2018
Potential Impact None Slight Moderate High
Time<<22/05Z 22/06Z 22/07Z 22/08Z 22/09Z 22/10Z 22/11Z 22/12Z 22/13Z 22/14Z 22/15Z 22/16Z 22/17Z
Type PRVL
VIS >6
CIG --
Cover SCT
FltCat VFR
WX --
WDir 80
WSpd 5
WGst --

Raw TAF
KMIA 210254Z 2103/2206 03003KT P6SM FEW025 SCT060 BKN250
  FM211400 10012KT P6SM SCT035 BKN060
  FM220000 08005KT P6SM SCT050


METAR Board
Radar Display
Forecast Discussion

FOR SITUATIONAL AWARENESS. NOT TO BE USED FOR FLIGHT PLANNING PURPOSES.